Time;durP1;ratioP1;P1;durP2;ratioP2;P2;SDS_P1;SDS_P2;PMS_P1;PMS_P2;Temp;Humidity;BMP_temperature;BMP_pressure;BME280_temperature;BME280_humidity;BME280_pressure;Samples;Min_cycle;Max_cycle;Signal;HPM_P1;HPM_P2
2023/08/01 00:02:17;;;;;;;5.72;2.78;;;;;;;23.70;61.95;97538.25;4410742;32;20106;-78
2023/08/01 00:04:43;;;;;;;6.85;3.00;;;;;;;23.93;61.04;97531.41;4411017;32;20098;-78
2023/08/01 00:07:10;;;;;;;8.95;3.17;;;;;;;23.55;62.32;97538.81;4410814;32;20086;-78
2023/08/01 00:09:37;;;;;;;9.02;2.97;;;;;;;23.36;62.78;97532.00;4410535;32;20152;-78
2023/08/01 00:12:05;;;;;;;8.18;2.90;;;;;;;23.64;62.28;97530.00;4410869;32;20089;-78
2023/08/01 00:14:32;;;;;;;7.65;3.20;;;;;;;24.28;59.76;97530.28;4410931;32;20169;-78
2023/08/01 00:16:59;;;;;;;8.05;3.03;;;;;;;24.07;59.73;97529.94;4409284;32;20130;-78
2023/08/01 00:19:27;;;;;;;7.95;3.08;;;;;;;23.98;60.08;97534.38;4410872;32;20120;-78
2023/08/01 00:21:54;;;;;;;8.10;2.95;;;;;;;24.20;59.51;97535.53;4410840;32;20090;-78
2023/08/01 00:24:21;;;;;;;8.82;3.33;;;;;;;24.00;60.25;97534.19;4410526;32;20098;-78
2023/08/01 00:26:48;;;;;;;8.10;3.20;;;;;;;24.16;59.99;97521.88;4410650;32;20096;-78
2023/08/01 00:29:15;;;;;;;7.18;3.00;;;;;;;24.87;57.06;97524.81;4413444;32;20565;-78
2023/08/01 00:31:41;;;;;;;7.70;3.55;;;;;;;24.84;57.09;97522.53;4425900;32;20098;-78
2023/08/01 00:34:08;;;;;;;6.37;2.92;;;;;;;24.76;57.17;97511.00;4426162;32;20097;-78
2023/08/01 00:36:35;;;;;;;8.15;3.15;;;;;;;24.18;59.01;97505.91;4425900;32;20443;-78
2023/08/01 00:39:02;;;;;;;6.50;2.90;;;;;;;24.46;58.77;97506.44;4425729;32;20119;-78
2023/08/01 00:41:29;;;;;;;7.62;3.05;;;;;;;24.49;57.78;97501.63;4426132;32;20102;-78
2023/08/01 00:43:56;;;;;;;10.93;3.00;;;;;;;24.14;58.86;97496.69;4425720;32;20098;-78
2023/08/01 00:46:23;;;;;;;7.62;3.12;;;;;;;24.07;59.76;97498.31;4425860;32;20375;-78
2023/08/01 00:48:50;;;;;;;8.15;3.00;;;;;;;23.75;61.27;97499.09;4425859;32;20115;-78
2023/08/01 00:51:18;;;;;;;7.47;2.62;;;;;;;24.45;59.67;97499.47;4425642;32;20102;-78
2023/08/01 00:53:46;;;;;;;7.78;2.70;;;;;;;25.16;57.14;97495.25;4425871;32;20145;-78
2023/08/01 00:56:13;;;;;;;7.55;2.90;;;;;;;24.45;59.41;97486.31;4412050;32;20172;-78
2023/08/01 00:58:40;;;;;;;6.37;2.90;;;;;;;24.28;60.56;97477.56;4425573;32;20502;-78
2023/08/01 01:01:07;;;;;;;7.05;2.95;;;;;;;25.12;58.23;97486.03;4425928;32;20440;-78
2023/08/01 01:03:34;;;;;;;9.25;3.22;;;;;;;25.44;56.40;97488.53;4425793;32;20140;-78
2023/08/01 01:06:17;;;;;;;7.68;3.10;;;;;;;24.69;59.12;97478.37;4425470;32;20424;-78
2023/08/01 01:08:45;;;;;;;7.18;2.95;;;;;;;24.88;59.25;97476.34;4411650;32;20169;-78
2023/08/01 01:11:12;;;;;;;6.32;2.92;;;;;;;24.55;60.04;97475.59;4425867;32;20104;-78
2023/08/01 01:13:39;;;;;;;8.32;3.15;;;;;;;25.14;58.12;97478.78;4425528;32;20457;-78
2023/08/01 01:16:06;;;;;;;7.57;3.00;;;;;;;24.74;59.49;97473.41;4425627;32;20136;-78
2023/08/01 01:18:33;;;;;;;7.03;3.00;;;;;;;25.36;58.21;97472.72;4425670;32;20216;-78
2023/08/01 01:21:00;;;;;;;8.73;3.08;;;;;;;25.15;58.17;97461.94;4425406;32;20108;-78
2023/08/01 01:23:27;;;;;;;7.78;3.10;;;;;;;25.33;58.18;97466.00;4425796;32;20507;-79
2023/08/01 01:25:56;;;;;;;7.37;2.70;;;;;;;25.66;56.88;97452.59;4425381;32;20539;-79
2023/08/01 01:28:23;;;;;;;8.18;2.95;;;;;;;25.38;57.95;97454.91;4411916;32;20119;-79
2023/08/01 01:30:52;;;;;;;7.47;3.03;;;;;;;25.31;58.48;97448.69;4425471;32;20108;-79
2023/08/01 01:33:20;;;;;;;7.75;3.05;;;;;;;25.11;59.18;97448.28;4411845;32;20147;-79
2023/08/01 01:35:47;;;;;;;7.20;3.20;;;;;;;25.15;59.23;97448.75;4411782;32;20128;-79
2023/08/01 01:38:14;;;;;;;8.88;3.20;;;;;;;25.09;59.50;97437.88;4425519;32;20249;-79
2023/08/01 01:40:41;;;;;;;7.25;3.10;;;;;;;25.14;59.57;97429.44;4425291;32;20460;-79
2023/08/01 01:43:08;;;;;;;9.25;3.17;;;;;;;24.97;60.29;97433.91;4425586;32;20081;-79
2023/08/01 01:45:35;;;;;;;7.43;2.90;;;;;;;25.28;59.43;97430.53;4425498;32;20149;-79
2023/08/01 01:48:02;;;;;;;6.95;2.92;;;;;;;25.04;60.19;97434.09;4425310;32;20112;-79
2023/08/01 01:50:29;;;;;;;8.15;3.12;;;;;;;25.27;59.35;97434.16;4425432;32;20121;-79
2023/08/01 01:52:55;;;;;;;8.05;2.90;;;;;;;25.17;59.61;97426.44;4425616;32;20113;-79
2023/08/01 01:55:22;;;;;;;7.22;3.12;;;;;;;24.47;61.41;97421.06;4425201;32;20165;-79
2023/08/01 01:57:49;;;;;;;7.37;3.08;;;;;;;25.03;59.87;97429.81;4425619;32;20153;-79
2023/08/01 02:00:16;;;;;;;9.95;3.50;;;;;;;24.97;60.11;97426.00;4425348;32;20098;-79
2023/08/01 02:02:43;;;;;;;7.00;3.10;;;;;;;24.33;61.57;97425.19;4425076;32;20553;-79
2023/08/01 02:05:10;;;;;;;7.07;3.12;;;;;;;24.33;61.53;97422.53;4425356;32;20077;-79
2023/08/01 02:07:37;;;;;;;11.30;3.20;;;;;;;23.91;62.55;97414.78;4425351;32;20223;-79
2023/08/01 02:10:04;;;;;;;6.97;3.17;;;;;;;24.88;59.38;97420.94;4424960;32;20149;-79
2023/08/01 02:12:31;;;;;;;7.40;2.97;;;;;;;24.67;59.92;97419.69;4425394;32;20090;-79
2023/08/01 02:14:58;;;;;;;9.07;3.35;;;;;;;25.16;58.76;97416.87;4425251;32;20110;-79
2023/08/01 02:17:25;;;;;;;9.88;3.22;;;;;;;25.23;58.38;97419.66;4425522;32;20104;-79
2023/08/01 02:19:53;;;;;;;7.72;2.70;;;;;;;24.99;59.63;97420.56;4425136;32;20153;-79
2023/08/01 02:22:19;;;;;;;5.93;2.60;;;;;;;24.30;61.57;97414.94;4425142;32;20181;-79
2023/08/01 02:24:46;;;;;;;5.95;2.92;;;;;;;24.87;59.45;97409.53;4425335;32;20086;-79
2023/08/01 02:27:13;;;;;;;8.45;3.15;;;;;;;23.65;63.09;97410.50;4425124;32;20419;-79
2023/08/01 02:29:40;;;;;;;7.07;3.22;;;;;;;22.27;70.90;97407.28;4424741;32;20110;-79
2023/08/01 02:32:07;;;;;;;8.32;3.20;;;;;;;23.64;65.12;97400.16;4425231;32;20231;-79
2023/08/01 02:34:34;;;;;;;11.88;3.17;;;;;;;24.30;62.12;97403.59;4411536;32;20078;-79
2023/08/01 02:37:01;;;;;;;6.95;3.12;;;;;;;24.55;61.68;97401.75;4424783;32;20102;-79
2023/08/01 02:39:28;;;;;;;7.35;2.90;;;;;;;25.27;59.29;97399.84;4425302;32;20093;-79
2023/08/01 02:41:55;;;;;;;6.60;2.95;;;;;;;25.18;59.96;97399.06;4411434;32;20089;-79
2023/08/01 02:44:22;;;;;;;7.87;3.10;;;;;;;25.38;59.27;97399.44;4424810;32;20096;-79
2023/08/01 02:46:49;;;;;;;8.43;3.00;;;;;;;25.34;59.04;97403.44;4425026;32;20102;-79
2023/08/01 02:49:16;;;;;;;7.03;2.65;;;;;;;25.03;60.51;97400.78;4424969;32;20162;-79
2023/08/01 02:51:42;;;;;;;5.85;2.90;;;;;;;25.16;60.30;97390.50;4424710;32;20115;-79
2023/08/01 02:54:09;;;;;;;6.55;3.03;;;;;;;25.01;61.31;97398.31;4425038;32;20086;-79
2023/08/01 02:56:40;;;;;;;7.72;3.62;;;;;;;25.03;61.57;97392.88;4424728;32;20165;-79
2023/08/01 02:59:08;;;;;;;6.70;3.20;;;;;;;25.07;61.53;97391.53;4424558;32;20128;-79
2023/08/01 03:01:39;;;;;;;6.50;3.12;;;;;;;24.61;62.36;97377.34;4424900;32;20144;-79
2023/08/01 03:04:06;;;;;;;7.70;2.90;;;;;;;24.84;62.00;97380.06;4424768;32;20151;-79
2023/08/01 03:06:33;;;;;;;7.20;3.10;;;;;;;24.85;61.81;97377.25;4411001;32;20149;-79
2023/08/01 03:09:01;;;;;;;5.93;3.00;;;;;;;25.01;61.15;97379.00;4411040;32;20513;-79
2023/08/01 03:11:28;;;;;;;8.70;3.20;;;;;;;24.21;62.68;97374.59;4424459;32;20097;-79
2023/08/01 03:13:55;;;;;;;8.52;3.08;;;;;;;24.49;62.00;97382.97;4424751;32;20149;-79
2023/08/01 03:16:22;;;;;;;8.07;3.22;;;;;;;24.49;62.45;97376.88;4424672;32;20504;-79
2023/08/01 03:18:48;;;;;;;7.37;2.75;;;;;;;24.95;60.87;97385.78;4424220;32;20151;-79
2023/08/01 03:21:16;;;;;;;6.93;3.17;;;;;;;25.26;59.60;97377.91;4424765;32;20109;-79
2023/08/01 03:23:43;;;;;;;8.27;3.00;;;;;;;25.53;58.64;97376.59;4410950;32;20131;-79
2023/08/01 03:26:10;;;;;;;9.32;3.33;;;;;;;25.88;57.45;97379.66;4424139;32;20165;-79
2023/08/01 03:28:37;;;;;;;8.93;3.70;;;;;;;25.61;58.17;97378.31;4424526;32;20097;-79
2023/08/01 03:31:03;;;;;;;6.50;3.20;;;;;;;25.45;58.71;97368.72;4424866;32;20085;-79
2023/08/01 03:33:32;;;;;;;8.15;2.97;;;;;;;25.12;59.91;97364.63;4412376;32;20394;-79
2023/08/01 03:35:59;;;;;;;8.50;3.30;;;;;;;25.07;60.03;97362.47;4426446;32;20113;-79
2023/08/01 03:38:26;;;;;;;8.82;3.47;;;;;;;25.11;59.40;97352.44;4426342;32;20106;-79
2023/08/01 03:40:53;;;;;;;7.00;3.10;;;;;;;24.76;60.98;97352.69;4426124;32;20090;-79
2023/08/01 03:43:23;;;;;;;7.25;3.10;;;;;;;24.70;61.26;97355.22;4426547;32;20108;-79
2023/08/01 03:45:51;;;;;;;6.95;3.08;;;;;;;25.45;58.46;97352.88;4426283;32;20177;-79
2023/08/01 03:48:18;;;;;;;7.32;3.30;;;;;;;25.74;57.22;97346.91;4425950;32;20162;-79
2023/08/01 03:50:45;;;;;;;7.85;3.08;;;;;;;23.82;64.43;97336.75;4426420;32;20111;-79
2023/08/01 03:53:12;;;;;;;8.07;3.00;;;;;;;24.66;62.82;97338.06;4426416;32;20100;-79
2023/08/01 03:55:39;;;;;;;9.32;2.90;;;;;;;25.24;60.17;97328.91;4412459;32;20172;-79
2023/08/01 03:58:06;;;;;;;7.30;2.95;;;;;;;25.86;57.44;97334.91;4426193;32;20082;-79
2023/08/01 04:00:33;;;;;;;7.75;3.00;;;;;;;26.46;55.91;97330.50;4426028;32;20119;-79
2023/08/01 04:03:01;;;;;;;7.90;3.08;;;;;;;26.32;57.54;97326.84;4426363;32;20104;-79
2023/08/01 04:05:28;;;;;;;7.00;3.22;;;;;;;26.45;57.13;97324.41;4412479;32;20113;-79
2023/08/01 04:07:57;;;;;;;8.07;2.95;;;;;;;26.73;55.66;97326.41;4425908;32;20097;-79
2023/08/01 04:10:24;;;;;;;7.32;3.00;;;;;;;26.91;54.88;97331.31;4425988;32;20082;-79
2023/08/01 04:12:51;;;;;;;10.38;3.37;;;;;;;26.18;56.65;97339.06;4426275;32;20105;-79
2023/08/01 04:15:18;;;;;;;8.98;2.87;;;;;;;26.34;55.27;97337.22;4425849;32;20133;-79
2023/08/01 04:17:45;;;;;;;6.93;2.80;;;;;;;26.92;53.67;97328.47;4426225;32;20086;-79
2023/08/01 04:20:12;;;;;;;7.12;2.80;;;;;;;26.13;55.82;97325.53;4426133;32;20408;-79
2023/08/01 04:22:39;;;;;;;6.28;2.70;;;;;;;27.11;52.65;97313.81;4425814;32;20085;-79
2023/08/01 04:25:06;;;;;;;8.32;3.22;;;;;;;28.25;49.31;97309.31;4426082;32;20137;-79
2023/08/01 04:27:33;;;;;;;6.65;2.70;;;;;;;29.19;47.09;97314.88;4426242;32;20147;-79
2023/08/01 04:30:01;;;;;;;7.20;2.53;;;;;;;29.22;46.37;97313.66;4425358;32;20435;-79
2023/08/01 04:32:28;;;;;;;8.65;2.45;;;;;;;29.29;45.70;97328.59;4426022;32;20106;-79
2023/08/01 04:34:55;;;;;;;6.68;2.47;;;;;;;29.33;44.48;97327.16;4426009;32;20389;-79
2023/08/01 04:37:23;;;;;;;6.60;2.70;;;;;;;28.90;45.74;97336.44;4425718;32;20507;-79
2023/08/01 04:39:49;;;;;;;8.20;3.15;;;;;;;29.41;44.79;97334.13;4412338;32;20491;-79
2023/08/01 04:42:16;;;;;;;6.25;2.70;;;;;;;28.98;46.43;97347.72;4425036;32;20143;-79
2023/08/01 04:44:43;;;;;;;4.70;2.15;;;;;;;29.56;45.56;97348.09;4411931;32;20168;-79
2023/08/01 04:47:11;;;;;;;6.75;2.53;;;;;;;30.43;43.28;97354.25;4425875;32;20188;-79
2023/08/01 04:49:38;;;;;;;6.40;2.70;;;;;;;31.43;42.15;97362.69;4425533;32;20093;-79
2023/08/01 04:52:05;;;;;;;7.18;2.60;;;;;;;32.25;40.53;97359.03;4426033;32;20091;-79
2023/08/01 04:54:34;;;;;;;8.20;2.90;;;;;;;32.87;39.65;97362.53;4425906;32;20178;-79
2023/08/01 04:57:01;;;;;;;5.05;2.30;;;;;;;33.14;38.43;97357.66;4425510;32;20090;-79
2023/08/01 04:59:28;;;;;;;6.43;2.47;;;;;;;33.31;37.60;97357.88;4425850;32;20124;-79
2023/08/01 05:01:55;;;;;;;5.62;2.60;;;;;;;34.03;36.49;97365.88;4425942;32;20443;-79
2023/08/01 05:04:22;;;;;;;7.07;2.70;;;;;;;34.82;35.34;97379.72;4425508;32;20093;-79
2023/08/01 05:06:49;;;;;;;5.55;2.28;;;;;;;35.31;35.24;97375.66;4425742;32;20137;-79
2023/08/01 05:09:16;;;;;;;4.03;2.12;;;;;;;35.47;34.08;97369.53;4425818;32;20089;-79
2023/08/01 05:11:43;;;;;;;6.45;2.15;;;;;;;36.50;32.33;97365.63;4425507;32;20103;-79
2023/08/01 05:14:09;;;;;;;4.10;2.08;;;;;;;36.94;30.51;97368.34;4425869;32;20089;-79
2023/08/01 05:16:36;;;;;;;8.13;2.55;;;;;;;37.71;29.68;97351.16;4425575;32;20119;-79
2023/08/01 05:19:04;;;;;;;5.68;2.47;;;;;;;37.02;30.14;97354.47;4425331;32;20158;-79
2023/08/01 05:21:31;;;;;;;5.03;2.20;;;;;;;37.23;30.21;97352.03;4425809;32;20133;-80
2023/08/01 05:23:57;;;;;;;5.72;2.30;;;;;;;37.86;29.30;97340.56;4425797;32;20093;-80
2023/08/01 05:26:24;;;;;;;4.85;2.37;;;;;;;38.38;29.33;97355.19;4411509;32;20128;-80
2023/08/01 05:28:51;;;;;;;6.87;2.42;;;;;;;38.86;28.17;97347.94;4425267;32;20119;-80
2023/08/01 05:31:18;;;;;;;4.55;1.92;;;;;;;36.10;30.64;97343.50;4425684;32;20077;-80
2023/08/01 05:33:45;;;;;;;7.68;2.47;;;;;;;35.89;30.78;97353.12;4425472;32;20139;-80
2023/08/01 05:36:12;;;;;;;6.15;2.10;;;;;;;35.78;30.98;97346.72;4425629;32;20105;-80
2023/08/01 05:38:39;;;;;;;4.12;1.87;;;;;;;35.42;31.02;97350.69;4425279;32;20412;-79
2023/08/01 05:41:06;;;;;;;5.35;2.33;;;;;;;33.07;33.89;97344.41;4425637;32;20115;-79
2023/08/01 05:43:33;;;;;;;4.20;1.80;;;;;;;31.63;36.32;97339.41;4425541;32;20702;-79
2023/08/01 05:46:00;;;;;;;5.75;1.90;;;;;;;31.95;36.51;97338.34;4424869;32;20157;-79
2023/08/01 05:48:27;;;;;;;5.20;2.28;;;;;;;32.20;35.82;97346.31;4425342;32;20094;-79
2023/08/01 05:50:55;;;;;;;5.90;2.10;;;;;;;31.16;37.11;97340.66;4425380;32;20078;-79
2023/08/01 05:53:22;;;;;;;6.80;2.55;;;;;;;30.92;38.35;97348.37;4424541;32;20651;-79
2023/08/01 05:55:49;;;;;;;4.37;1.90;;;;;;;30.43;39.06;97344.41;4425392;32;20448;-79
2023/08/01 05:58:16;;;;;;;4.45;2.10;;;;;;;30.45;38.86;97339.69;4425484;32;20078;-79
2023/08/01 06:00:43;;;;;;;5.65;2.35;;;;;;;29.84;40.32;97334.59;4425084;32;20099;-78
2023/08/01 06:03:10;;;;;;;5.05;2.33;;;;;;;29.29;40.65;97333.91;4425499;32;20156;-78
2023/08/01 06:05:37;;;;;;;6.97;2.40;;;;;;;29.29;40.71;97322.47;4425317;32;20492;-78
2023/08/01 06:08:06;;;;;;;5.18;2.20;;;;;;;28.82;41.36;97324.16;4424921;32;20467;-79
2023/08/01 06:10:34;;;;;;;5.85;2.30;;;;;;;28.40;43.17;97320.66;4411485;32;20078;-81
2023/08/01 06:13:01;;;;;;;4.65;2.10;;;;;;;28.06;43.29;97323.25;4411477;32;20112;-78
2023/08/01 06:15:28;;;;;;;5.43;2.25;;;;;;;28.28;43.59;97308.94;4424986;32;20174;-77
2023/08/01 06:17:57;;;;;;;6.30;2.40;;;;;;;27.89;44.29;97318.25;4425357;32;20160;-80
2023/08/01 06:20:24;;;;;;;5.05;2.15;;;;;;;27.12;45.13;97298.78;4412665;32;20146;-86
2023/08/01 06:22:51;;;;;;;7.35;2.45;;;;;;;26.79;46.86;97307.12;4431392;32;20089;-86
2023/08/01 06:25:18;;;;;;;5.95;2.10;;;;;;;26.98;46.62;97317.13;4430127;32;20582;-85
2023/08/01 06:27:45;;;;;;;5.70;2.12;;;;;;;27.05;46.52;97307.47;4426759;32;20100;-87
2023/08/01 06:30:12;;;;;;;8.77;2.40;;;;;;;27.08;46.42;97311.56;4427729;32;20169;-80
2023/08/01 06:32:39;;;;;;;6.72;2.40;;;;;;;26.53;47.27;97310.25;4425099;32;20085;-78
2023/08/01 06:35:06;;;;;;;5.10;2.40;;;;;;;26.53;47.45;97305.78;4424846;32;20103;-78
2023/08/01 06:37:33;;;;;;;8.15;2.30;;;;;;;26.90;47.37;97309.28;4420622;32;143059;-79
2023/08/01 06:40:01;;;;;;;6.65;2.10;;;;;;;27.21;46.97;97311.69;4425125;32;20074;-78
2023/08/01 06:42:28;;;;;;;5.47;2.10;;;;;;;28.03;45.83;97316.50;4424727;32;20733;-78
2023/08/01 06:44:55;;;;;;;4.55;1.98;;;;;;;28.59;44.20;97313.81;4425117;32;20090;-77
2023/08/01 06:47:22;;;;;;;6.87;2.70;;;;;;;28.96;43.99;97312.56;4424894;32;20086;-76
2023/08/01 06:49:49;;;;;;;6.60;1.95;;;;;;;29.24;42.17;97306.28;4424494;32;20508;-76
2023/08/01 06:52:16;;;;;;;4.05;2.10;;;;;;;28.74;42.88;97300.41;4424876;32;20105;-76
2023/08/01 06:54:42;;;;;;;8.45;2.30;;;;;;;28.17;43.74;97298.84;4425006;32;20089;-76
2023/08/01 06:57:09;;;;;;;7.15;2.40;;;;;;;28.50;43.52;97294.59;4424456;32;20523;-77
2023/08/01 06:59:36;;;;;;;6.22;2.10;;;;;;;28.95;43.16;97299.50;4424800;32;20153;-76
2023/08/01 07:02:04;;;;;;;5.47;2.35;;;;;;;29.17;43.37;97292.19;4424704;32;20112;-77
2023/08/01 07:04:31;;;;;;;4.60;2.10;;;;;;;29.66;42.22;97292.66;4424454;32;20094;-78
2023/08/01 07:06:57;;;;;;;5.10;2.20;;;;;;;29.81;42.88;97286.34;4423618;32;20098;-78
2023/08/01 07:09:24;;;;;;;5.07;1.95;;;;;;;30.19;41.52;97290.00;4424720;32;20153;-78
2023/08/01 07:11:51;;;;;;;4.43;2.10;;;;;;;29.45;41.96;97282.22;4424256;32;20094;-78
2023/08/01 07:14:18;;;;;;;4.87;2.10;;;;;;;28.58;42.36;97269.72;4429372;32;20077;-83
2023/08/01 07:16:47;;;;;;;6.45;2.37;;;;;;;28.67;43.70;97260.56;4429363;32;20226;-84
2023/08/01 07:19:14;;;;;;;7.47;2.50;;;;;;;28.48;43.79;97259.47;4432879;32;20097;-84
2023/08/01 07:21:41;;;;;;;6.12;2.40;;;;;;;28.94;42.71;97258.84;4430552;32;20049;-84
2023/08/01 07:24:08;;;;;;;7.87;2.40;;;;;;;29.45;42.35;97260.94;4425441;32;20086;-84
2023/08/01 07:26:35;;;;;;;5.50;2.50;;;;;;;28.57;43.01;97260.13;4427240;32;20135;-80
2023/08/01 07:29:02;;;;;;;4.65;2.22;;;;;;;28.36;43.31;97249.63;4426712;32;20081;-81
2023/08/01 07:31:29;;;;;;;5.22;2.30;;;;;;;27.67;45.44;97258.34;4426585;32;20107;-83
2023/08/01 07:33:56;;;;;;;5.78;2.30;;;;;;;27.33;46.17;97261.72;4432430;32;20082;-82
2023/08/01 07:36:23;;;;;;;4.47;2.20;;;;;;;26.75;46.37;97256.41;4425325;32;20145;-82
2023/08/01 07:38:50;;;;;;;4.95;2.42;;;;;;;27.44;46.97;97271.78;4424118;32;20128;-83
2023/08/01 07:41:17;;;;;;;6.87;2.60;;;;;;;27.41;45.90;97260.75;4424463;32;20117;-83
2023/08/01 07:43:44;;;;;;;5.57;2.30;;;;;;;27.97;46.25;97266.94;4428442;32;20095;-80
2023/08/01 07:46:11;;;;;;;5.07;2.20;;;;;;;28.16;46.37;97271.50;4432043;32;20512;-81
2023/08/01 07:48:38;;;;;;;5.10;2.40;;;;;;;28.16;44.15;97266.22;4425567;32;20124;-83
2023/08/01 07:51:07;;;;;;;5.68;2.50;;;;;;;28.42;45.76;97267.41;4424053;32;20149;-83
2023/08/01 07:53:34;;;;;;;5.75;2.47;;;;;;;28.33;45.25;97265.94;4423904;32;20094;-83
2023/08/01 07:56:02;;;;;;;5.22;2.00;;;;;;;28.69;44.16;97269.12;4425399;32;20157;-86
2023/08/01 07:58:29;;;;;;;5.43;2.50;;;;;;;29.08;43.79;97270.31;4433410;32;20149;-88
2023/08/01 08:00:56;;;;;;;5.65;2.45;;;;;;;29.27;43.11;97266.88;4416721;32;20110;-86
2023/08/01 08:03:24;;;;;;;6.18;2.40;;;;;;;29.54;43.68;97270.38;4428561;32;20061;-86
2023/08/01 08:05:54;;;;;;;6.30;2.22;;;;;;;29.48;42.81;97265.09;4429822;32;20127;-86
2023/08/01 08:08:27;;;;;;;5.47;2.60;;;;;;;30.05;42.97;97269.75;4402303;32;20151;-87
2023/08/01 08:10:54;;;;;;;5.90;2.65;;;;;;;30.43;41.25;97261.09;4416991;32;20113;-86
2023/08/01 08:13:21;;;;;;;5.10;2.15;;;;;;;30.33;42.47;97258.88;4415980;32;20157;-87
2023/08/01 08:15:56;;;;;;;7.47;2.70;;;;;;;30.50;42.61;97256.53;4416543;32;20146;-86
2023/08/01 08:18:24;;;;;;;5.62;2.30;;;;;;;30.84;40.62;97254.56;4437171;32;20072;-86
2023/08/01 08:20:51;;;;;;;6.12;2.40;;;;;;;30.95;40.20;97257.41;4437101;32;20133;-85
2023/08/01 08:23:19;;;;;;;4.72;2.37;;;;;;;31.24;39.61;97255.19;4419204;32;20189;-87
2023/08/01 08:25:47;;;;;;;4.50;2.10;;;;;;;30.90;41.16;97254.53;4433503;32;20097;-87
2023/08/01 08:28:14;;;;;;;5.72;2.35;;;;;;;31.26;40.05;97253.97;4414734;32;20093;-88
2023/08/01 08:30:41;;;;;;;5.78;2.42;;;;;;;31.47;39.67;97254.59;4431462;32;20101;-87
2023/08/01 08:33:10;;;;;;;6.70;2.37;;;;;;;32.26;39.84;97253.91;4431597;32;20173;-87
2023/08/01 08:35:38;;;;;;;7.03;2.67;;;;;;;31.76;39.20;97258.50;4431926;32;20123;-88
2023/08/01 08:38:05;;;;;;;5.70;2.58;;;;;;;31.60;41.04;97250.00;4432899;32;20070;-86
2023/08/01 08:40:33;;;;;;;6.32;2.30;;;;;;;32.39;37.05;97244.94;4431084;32;20501;-86
2023/08/01 08:43:03;;;;;;;4.82;2.30;;;;;;;32.24;35.97;97239.97;4433471;32;20073;-86
2023/08/01 08:45:34;;;;;;;5.62;2.30;;;;;;;31.84;37.97;97248.38;4436286;32;20095;-86
2023/08/01 08:48:02;;;;;;;6.15;2.75;;;;;;;31.27;38.09;97244.13;4434744;32;20062;-86
2023/08/01 08:50:30;;;;;;;8.25;2.67;;;;;;;30.72;39.11;97241.09;4417579;32;20120;-85
2023/08/01 08:52:58;;;;;;;6.20;2.60;;;;;;;31.22;38.77;97239.41;4408847;32;20107;-86
2023/08/01 08:55:27;;;;;;;6.32;2.53;;;;;;;30.51;38.96;97242.19;4428681;32;20160;-88
2023/08/01 08:57:54;;;;;;;5.68;2.50;;;;;;;30.09;39.21;97239.06;4419257;32;20061;-87
2023/08/01 09:00:21;;;;;;;7.65;2.60;;;;;;;30.59;39.33;97228.66;4421918;32;20122;-86
2023/08/01 09:02:48;;;;;;;5.10;2.37;;;;;;;31.00;38.40;97230.09;4435040;32;20093;-86
2023/08/01 09:05:16;;;;;;;4.95;2.40;;;;;;;31.56;38.68;97234.63;4432942;32;20096;-86
2023/08/01 09:07:43;;;;;;;4.53;2.35;;;;;;;31.65;37.17;97236.00;4415396;32;20099;-87
2023/08/01 09:10:10;;;;;;;6.00;2.15;;;;;;;32.07;37.33;97237.06;4432078;32;20112;-86
2023/08/01 09:12:37;;;;;;;5.80;2.40;;;;;;;31.64;37.25;97234.37;4421437;32;20122;-87
2023/08/01 09:15:05;;;;;;;5.47;2.28;;;;;;;30.60;38.18;97235.59;4436284;32;20066;-84
2023/08/01 09:17:32;;;;;;;4.72;2.20;;;;;;;30.32;38.93;97237.78;4433893;32;20157;-86
2023/08/01 09:20:06;;;;;;;4.72;2.40;;;;;;;30.51;39.62;97234.22;4432815;32;20143;-86
2023/08/01 09:22:45;;;;;;;6.28;2.60;;;;;;;30.81;38.77;97238.00;4418035;32;20785;-85
2023/08/01 09:25:13;;;;;;;5.53;2.47;;;;;;;30.92;38.52;97222.38;4428290;32;20082;-82
2023/08/01 09:27:40;;;;;;;6.00;2.50;;;;;;;30.72;38.68;97217.97;4428921;32;20102;-82
2023/08/01 09:30:09;;;;;;;7.55;2.60;;;;;;;31.20;39.72;97222.00;4426942;32;20101;-83
2023/08/01 09:32:37;;;;;;;5.10;2.20;;;;;;;31.19;38.78;97223.84;4414011;32;20144;-83
2023/08/01 09:35:05;;;;;;;6.90;2.40;;;;;;;31.22;36.88;97215.44;4426696;32;20279;-84
2023/08/01 09:37:41;;;;;;;6.22;2.40;;;;;;;31.11;38.67;97218.75;4413691;32;20058;-83
2023/08/01 09:40:11;;;;;;;7.47;2.60;;;;;;;30.77;38.87;97220.00;4413170;32;20113;-83
2023/08/01 09:42:43;;;;;;;7.22;2.40;;;;;;;31.12;39.30;97215.06;4411853;32;20113;-83
2023/08/01 09:45:17;;;;;;;6.40;2.50;;;;;;;32.02;39.43;97215.56;4426634;32;20145;-82
2023/08/01 09:47:45;;;;;;;6.40;2.67;;;;;;;31.92;38.15;97202.75;4431307;32;20072;-83
2023/08/01 09:50:20;;;;;;;6.20;2.47;;;;;;;31.31;39.06;97190.16;4430970;32;20066;-83
2023/08/01 09:52:52;;;;;;;5.32;2.28;;;;;;;32.04;36.70;97188.66;4427920;32;20089;-83
2023/08/01 09:55:32;;;;;;;5.87;2.20;;;;;;;32.56;35.92;97179.22;4426087;32;20113;-82
2023/08/01 09:58:00;;;;;;;5.95;2.55;;;;;;;32.72;37.21;97170.56;4427891;32;20101;-82
2023/08/01 10:00:28;;;;;;;5.85;2.37;;;;;;;32.00;36.56;97158.94;4428776;32;20156;-82
2023/08/01 10:03:02;;;;;;;4.35;2.10;;;;;;;32.37;36.10;97156.25;4429957;32;20057;-81
2023/08/01 10:05:32;;;;;;;6.55;2.58;;;;;;;31.30;37.31;97156.53;4430881;32;20452;-81
2023/08/01 10:08:00;;;;;;;6.68;2.37;;;;;;;31.26;38.28;97146.50;4416145;32;20104;-82
2023/08/01 10:10:28;;;;;;;5.72;2.37;;;;;;;31.10;38.23;97150.53;4425736;32;20682;-82
2023/08/01 10:12:57;;;;;;;6.50;2.60;;;;;;;30.83;37.90;97149.87;4412039;32;20128;-82
2023/08/01 10:15:25;;;;;;;6.15;2.33;;;;;;;30.96;38.09;97146.34;4425172;32;20089;-82
2023/08/01 10:17:52;;;;;;;5.50;2.22;;;;;;;31.11;38.35;97144.16;4425464;32;20098;-82
2023/08/01 10:20:21;;;;;;;7.53;2.50;;;;;;;31.15;38.34;97142.69;4425317;32;20550;-82
2023/08/01 10:22:52;;;;;;;5.82;2.30;;;;;;;30.88;37.96;97143.94;4412016;32;20120;-82
2023/08/01 10:25:19;;;;;;;6.68;2.42;;;;;;;31.18;36.98;97142.25;4427091;32;20111;-82
2023/08/01 10:28:03;;;;;;;5.43;2.58;;;;;;;31.60;36.25;97142.53;4426722;32;20082;-82
2023/08/01 10:30:30;;;;;;;6.07;2.37;;;;;;;32.39;37.33;97143.50;4427322;32;20113;-82
2023/08/01 10:32:58;;;;;;;4.05;2.15;;;;;;;32.16;36.43;97145.00;4425845;32;20115;-82
2023/08/01 10:35:36;;;;;;;5.68;2.40;;;;;;;31.94;36.10;97138.50;4411780;32;20078;-82
2023/08/01 10:38:11;;;;;;;6.68;2.30;;;;;;;31.81;37.04;97141.31;4425273;32;20151;-81
2023/08/01 10:40:42;;;;;;;7.07;2.70;;;;;;;31.19;36.29;97135.09;4425395;32;20157;-81
2023/08/01 10:43:22;;;;;;;5.37;2.72;;;;;;;30.65;37.55;97140.00;4426231;32;20076;-80
2023/08/01 10:46:03;;;;;;;5.93;2.62;;;;;;;30.86;38.25;97146.00;4425640;32;20177;-80
2023/08/01 10:48:30;;;;;;;5.68;2.53;;;;;;;31.25;38.02;97143.03;4425540;32;20085;-80
2023/08/01 10:50:57;;;;;;;6.28;2.20;;;;;;;31.55;38.43;97134.34;4425804;32;20090;-81
2023/08/01 10:53:24;;;;;;;5.10;2.40;;;;;;;31.50;37.26;97134.22;4425776;32;20162;-81
2023/08/01 10:55:52;;;;;;;4.45;2.10;;;;;;;31.43;38.14;97133.47;4425111;32;20153;-81
2023/08/01 10:58:19;;;;;;;5.87;2.50;;;;;;;31.76;37.87;97128.63;4411211;32;20162;-81
2023/08/01 11:00:46;;;;;;;6.45;2.90;;;;;;;31.67;37.58;97136.06;4425105;32;20128;-81
2023/08/01 11:03:13;;;;;;;5.43;2.58;;;;;;;31.52;36.56;97134.81;4424885;32;20137;-81
2023/08/01 11:05:40;;;;;;;4.87;2.33;;;;;;;31.56;36.66;97131.47;4425259;32;20115;-80
2023/08/01 11:08:07;;;;;;;6.25;2.37;;;;;;;31.79;37.60;97128.19;4425530;32;20142;-81
2023/08/01 11:10:33;;;;;;;6.05;2.40;;;;;;;31.77;36.13;97122.25;4425673;32;20404;-80
2023/08/01 11:13:01;;;;;;;6.32;2.50;;;;;;;31.75;36.65;97112.84;4426100;32;20680;-81
2023/08/01 11:15:27;;;;;;;7.35;2.60;;;;;;;31.73;36.91;97113.03;4426503;32;20469;-81
2023/08/01 11:17:55;;;;;;;4.85;2.40;;;;;;;32.16;35.66;97110.31;4426193;32;20100;-81
2023/08/01 11:20:24;;;;;;;6.32;2.42;;;;;;;32.28;36.27;97104.19;4413321;32;20093;-81
2023/08/01 11:22:52;;;;;;;7.50;2.70;;;;;;;32.25;36.42;97105.47;4425538;32;20097;-79
2023/08/01 11:25:31;;;;;;;6.15;2.40;;;;;;;32.91;36.68;97101.06;4424544;32;20479;-79
2023/08/01 11:28:03;;;;;;;7.07;2.60;;;;;;;32.20;36.29;97098.13;4412486;32;20143;-80
2023/08/01 11:30:33;;;;;;;6.15;2.50;;;;;;;32.22;35.87;97097.91;4428612;32;20435;-80
2023/08/01 11:33:02;;;;;;;4.43;2.05;;;;;;;31.56;36.54;97091.47;4429551;32;20145;-80
2023/08/01 11:35:30;;;;;;;5.25;2.10;;;;;;;32.20;37.51;97092.78;4428254;32;20150;-80
2023/08/01 11:37:58;;;;;;;5.53;2.17;;;;;;;32.59;34.88;97087.97;4429013;32;20074;-80